createdAt,value
2018-12-22T00:00:11.582Z,21.2
2018-12-22T00:01:52.229Z,21.2
2018-12-22T00:33:25.190Z,21.1
2018-12-22T00:34:15.245Z,21.1
2018-12-22T00:35:05.307Z,21.1
2018-12-22T00:35:55.085Z,21.1
2018-12-22T00:36:45.410Z,21.1
2018-12-22T00:37:35.712Z,21.1
2018-12-22T00:38:25.524Z,21.1
2018-12-22T00:39:15.292Z,21.1
2018-12-22T00:40:05.635Z,21.1
2018-12-22T00:40:55.688Z,21.1
2018-12-22T00:41:45.465Z,21.1
2018-12-22T00:42:35.820Z,21.1
2018-12-22T00:43:25.583Z,21.1
2018-12-22T00:44:15.912Z,21.1
2018-12-22T00:45:05.965Z,21.1
2018-12-22T00:45:56.023Z,21.1
2018-12-22T00:46:46.084Z,21.1
2018-12-22T00:47:36.142Z,21.1
2018-12-22T00:48:26.441Z,21.1
2018-12-22T00:49:16.255Z,21.1
2018-12-22T00:50:06.318Z,21.1
2018-12-22T00:50:56.372Z,21.1
2018-12-22T00:51:46.481Z,21.1
2018-12-22T00:52:36.215Z,21.1
2018-12-22T00:53:26.549Z,21.1
2018-12-22T00:54:18.566Z,21.1
2018-12-22T00:55:06.656Z,21
2018-12-22T00:55:56.791Z,21
2018-12-22T00:56:46.763Z,21.1
2018-12-22T00:57:36.833Z,21
2018-12-22T00:58:31.765Z,21
2018-12-22T00:59:16.940Z,21.1
2018-12-22T01:00:06.843Z,21
2018-12-22T01:00:57.122Z,21
2018-12-22T01:01:47.116Z,21
2018-12-22T01:02:37.163Z,21
2018-12-22T01:03:27.220Z,21
2018-12-22T01:04:17.273Z,21
2018-12-22T01:05:07.331Z,21
2018-12-22T01:05:57.400Z,21
2018-12-22T01:06:47.695Z,21
2018-12-22T01:07:37.503Z,21
2018-12-22T01:08:27.573Z,21
2018-12-22T01:09:17.625Z,21
2018-12-22T01:10:07.673Z,21
2018-12-22T01:10:57.740Z,20.9
2018-12-22T01:11:47.793Z,20.9
2018-12-22T01:12:37.583Z,21
2018-12-22T01:13:27.905Z,20.9
2018-12-22T01:14:17.700Z,20.9
2018-12-22T01:15:08.022Z,21
2018-12-22T01:15:58.075Z,21
2018-12-22T01:16:47.883Z,21
2018-12-22T01:17:38.190Z,21
2018-12-22T01:18:28.250Z,20.9
2018-12-22T01:19:18.303Z,21
2018-12-22T01:20:08.368Z,21
2018-12-22T01:20:58.415Z,20.9
2018-12-22T01:21:48.480Z,20.9
2018-12-22T01:22:38.525Z,20.9
2018-12-22T01:23:28.582Z,20.9
2018-12-22T01:24:18.643Z,20.9
2018-12-22T01:25:08.697Z,20.9
2018-12-22T01:25:59.011Z,20.9
2018-12-22T01:26:48.544Z,20.9
2018-12-22T01:27:38.867Z,20.9
2018-12-22T01:28:28.920Z,20.9
2018-12-22T01:29:18.707Z,20.9
2018-12-22T01:30:09.052Z,20.9
2018-12-22T01:30:59.142Z,20.9
2018-12-22T01:31:49.152Z,20.9
2018-12-22T01:32:39.209Z,20.9
2018-12-22T01:33:29.278Z,20.9
2018-12-22T01:34:19.322Z,20.9
2018-12-22T01:35:09.377Z,20.9
2018-12-22T01:35:59.435Z,20.9
2018-12-22T01:36:49.494Z,20.9
2018-12-22T01:37:39.549Z,20.9
2018-12-22T01:38:29.578Z,20.9
2018-12-22T01:39:19.672Z,20.9
2018-12-22T01:40:09.719Z,20.9
2018-12-22T01:40:59.780Z,20.9
2018-12-22T01:41:49.839Z,20.9
2018-12-22T01:42:39.889Z,20.9
2018-12-22T01:43:30.247Z,20.9
2018-12-22T01:44:20.012Z,20.9
2018-12-22T01:45:10.062Z,20.9
2018-12-22T01:46:00.111Z,20.9
2018-12-22T01:46:49.897Z,20.9
2018-12-22T01:47:39.687Z,20.9
2018-12-22T01:48:30.128Z,20.9
2018-12-22T01:49:20.339Z,20.9
2018-12-22T01:50:10.410Z,20.9
2018-12-22T01:51:00.466Z,20.9
2018-12-22T01:51:50.512Z,20.9
2018-12-22T01:52:40.566Z,20.9
2018-12-22T01:53:30.631Z,20.9
2018-12-22T01:54:20.401Z,20.9
2018-12-22T01:55:10.737Z,20.9
2018-12-22T01:56:00.797Z,20.9
2018-12-22T01:56:50.858Z,20.9
2018-12-22T01:57:40.908Z,20.9
2018-12-22T01:58:30.683Z,20.9
2018-12-22T01:59:20.748Z,20.9
2018-12-22T02:00:11.080Z,20.9
2018-12-22T02:01:00.866Z,20.9
2018-12-22T02:01:51.199Z,20.9
2018-12-22T02:02:40.970Z,20.9
2018-12-22T02:03:31.555Z,20.9
2018-12-22T02:04:21.360Z,20.9
2018-12-22T02:05:11.417Z,20.9
2018-12-22T02:06:01.478Z,20.9
2018-12-22T02:06:51.535Z,20.9
2018-12-22T02:07:41.588Z,20.9
2018-12-22T02:08:31.378Z,20.9
2018-12-22T02:09:21.707Z,20.9
2018-12-22T02:10:11.838Z,20.9
2018-12-22T02:11:01.810Z,20.9
2018-12-22T02:11:51.870Z,20.9
2018-12-22T02:12:41.922Z,20.9
2018-12-22T02:13:31.712Z,20.9
2018-12-22T02:14:22.035Z,20.9
2018-12-22T02:15:12.089Z,20.9
2018-12-22T02:16:01.882Z,20.9
2018-12-22T02:16:52.202Z,20.9
2018-12-22T02:17:42.260Z,20.9
2018-12-22T02:18:32.570Z,20.9
2018-12-22T02:19:22.673Z,20.9
2018-12-22T02:20:12.154Z,20.9
2018-12-22T02:21:02.482Z,20.9
2018-12-22T02:21:52.550Z,20.9
2018-12-22T02:22:42.602Z,20.9
2018-12-22T02:23:32.657Z,20.9
2018-12-22T02:24:22.762Z,20.9
2018-12-22T02:25:12.774Z,20.9
2018-12-22T02:26:02.827Z,20.9
2018-12-22T02:26:52.607Z,20.9
2018-12-22T02:27:42.939Z,20.9
2018-12-22T02:28:32.999Z,20.9
2018-12-22T02:29:23.304Z,20.9
2018-12-22T02:30:13.130Z,20.9
2018-12-22T02:31:02.938Z,20.9
2018-12-22T02:31:52.918Z,20.9
2018-12-22T02:32:43.385Z,20.9
2018-12-22T02:33:33.334Z,20.9
2018-12-22T02:34:23.395Z,20.9
2018-12-22T02:35:13.454Z,20.9
2018-12-22T02:36:03.365Z,20.9
2018-12-22T02:36:53.299Z,20.9
2018-12-22T02:37:43.344Z,20.9
2018-12-22T02:38:33.683Z,21
2018-12-22T02:39:23.549Z,20.9
2018-12-22T02:40:13.778Z,20.9
2018-12-22T02:41:03.839Z,21
2018-12-22T02:41:53.896Z,21
2018-12-22T02:42:43.954Z,20.9
2018-12-22T02:43:34.004Z,20.9
2018-12-22T02:44:23.787Z,21
2018-12-22T02:45:14.180Z,21
2018-12-22T02:46:04.177Z,21
2018-12-22T02:46:54.233Z,21
2018-12-22T02:47:44.289Z,21
2018-12-22T02:48:34.088Z,21
2018-12-22T02:49:24.425Z,21
2018-12-22T02:50:14.476Z,21
2018-12-22T02:51:04.250Z,21
2018-12-22T02:51:54.572Z,21
2018-12-22T02:52:44.636Z,21
2018-12-22T02:53:34.701Z,21
2018-12-22T02:54:24.753Z,21
2018-12-22T02:55:14.798Z,21
2018-12-22T02:56:04.864Z,21
2018-12-22T02:56:54.905Z,21
2018-12-22T02:57:44.703Z,21
2018-12-22T02:58:35.056Z,21
2018-12-22T02:59:25.083Z,21
2018-12-22T03:00:15.133Z,21
2018-12-22T03:01:04.920Z,21.1
2018-12-22T03:01:55.270Z,21.1
2018-12-22T03:02:45.042Z,21.1
2018-12-22T03:03:35.383Z,21
2018-12-22T03:04:25.262Z,21.1
2018-12-22T03:05:15.468Z,21.1
2018-12-22T03:06:05.536Z,21.1
2018-12-22T03:06:55.315Z,21.1
2018-12-22T03:07:45.382Z,21.1
2018-12-22T03:08:35.716Z,21.1
2018-12-22T03:09:25.567Z,21.1
2018-12-22T03:10:16.062Z,21.1
2018-12-22T03:11:05.885Z,21.1
2018-12-22T03:11:55.930Z,21.1
2018-12-22T03:12:45.773Z,21.1
2018-12-22T03:13:36.040Z,21.1
2018-12-22T03:14:25.819Z,21.1
2018-12-22T03:15:16.150Z,21.1
2018-12-22T03:26:56.670Z,21.2
2018-12-22T03:27:47.016Z,21.2
2018-12-22T03:28:37.072Z,21.2
2018-12-22T03:30:17.188Z,21.2
2018-12-22T03:31:07.133Z,21.2
2018-12-22T03:31:57.322Z,21.2
2018-12-22T03:32:47.367Z,21.2
2018-12-22T03:33:37.396Z,21.2
2018-12-22T03:34:27.179Z,21.2
2018-12-22T03:35:17.604Z,21.2
2018-12-22T03:36:07.574Z,21.2
2018-12-22T03:36:57.623Z,21.2
2018-12-22T03:37:47.681Z,21.2
2018-12-22T03:38:37.753Z,21.2
2018-12-22T03:39:27.809Z,21.2
2018-12-22T03:40:17.858Z,21.2
2018-12-22T03:41:07.903Z,21.2
2018-12-22T03:41:57.962Z,21.2
2018-12-22T03:42:48.017Z,21.3
2018-12-22T03:43:37.802Z,21.3
2018-12-22T03:44:27.847Z,21.3
2018-12-22T03:45:18.189Z,21.3
2018-12-22T03:46:08.239Z,21.3
2018-12-22T03:46:58.308Z,21.3
2018-12-22T03:47:48.075Z,21.3
2018-12-22T03:48:38.507Z,21.3
2018-12-22T03:49:28.464Z,21.3
2018-12-22T03:50:18.520Z,21.3
2018-12-22T03:51:08.302Z,21.3
2018-12-22T03:51:58.353Z,21.3
2018-12-22T03:52:48.705Z,21.3
2018-12-22T03:53:38.758Z,21.3
2018-12-22T03:54:28.887Z,21.3
2018-12-22T03:55:18.579Z,21.3
2018-12-22T03:56:08.937Z,21.3
2018-12-22T03:56:58.988Z,21.3
2018-12-22T03:57:49.033Z,21.3
2018-12-22T03:58:39.079Z,21.3
2018-12-22T03:59:29.398Z,21.3
2018-12-22T04:00:18.915Z,21.3
2018-12-22T04:01:09.256Z,21.3
2018-12-22T04:01:59.311Z,21.3
2018-12-22T04:02:49.104Z,21.3
2018-12-22T04:03:39.256Z,21.3
2018-12-22T04:04:29.477Z,21.3
2018-12-22T04:05:19.690Z,21.3
2018-12-22T04:06:09.609Z,21.3
2018-12-22T04:06:59.389Z,21.4
2018-12-22T04:07:49.706Z,21.3
2018-12-22T04:08:39.756Z,21.4
2018-12-22T04:09:29.834Z,21.4
2018-12-22T04:10:19.871Z,21.4
2018-12-22T04:11:09.648Z,21.4
2018-12-22T04:11:59.989Z,21.4
2018-12-22T04:12:49.776Z,21.4
2018-12-22T04:13:40.120Z,21.4
2018-12-22T04:14:30.140Z,21.4
2018-12-22T04:15:20.213Z,21.4
2018-12-22T04:16:10.275Z,21.4
2018-12-22T04:16:59.773Z,21.4
2018-12-22T04:17:50.377Z,21.4
2018-12-22T04:18:40.433Z,21.4
2018-12-22T04:19:30.212Z,21.4
2018-12-22T04:20:20.550Z,21.4
2018-12-22T04:21:10.596Z,21.4
2018-12-22T04:22:00.786Z,21.4
2018-12-22T04:22:50.713Z,21.4
2018-12-22T04:23:40.767Z,21.4
2018-12-22T04:24:30.824Z,21.4
2018-12-22T04:25:21.176Z,21.4
2018-12-22T04:26:10.679Z,21.4
2018-12-22T04:27:01.006Z,21.4
2018-12-22T04:27:51.053Z,21.4
2018-12-22T04:28:41.115Z,21.4
2018-12-22T04:29:34.844Z,21.4
2018-12-22T04:30:21.224Z,21.4
2018-12-22T04:31:11.274Z,21.4
2018-12-22T04:32:01.327Z,21.4
2018-12-22T04:32:51.126Z,21.4
2018-12-22T04:33:41.444Z,21.4
2018-12-22T04:34:31.505Z,21.4
2018-12-22T04:35:21.563Z,21.4
2018-12-22T04:36:11.858Z,21.4
2018-12-22T04:37:01.674Z,21.5
2018-12-22T04:37:51.729Z,21.4
2018-12-22T04:38:41.781Z,21.5
2018-12-22T04:39:31.853Z,21.5
2018-12-22T04:40:21.611Z,21.5
2018-12-22T04:41:11.953Z,21.5
2018-12-22T04:42:02.020Z,21.5
2018-12-22T04:42:52.124Z,21.5
2018-12-22T04:43:42.116Z,21.5
2018-12-22T04:44:32.177Z,21.5
2018-12-22T05:01:52.284Z,21.6
2018-12-22T05:02:42.328Z,21.6
2018-12-22T05:03:32.394Z,21.6
2018-12-22T05:04:22.160Z,21.6
2018-12-22T05:05:12.513Z,21.6
2018-12-22T05:06:02.545Z,21.6
2018-12-22T05:06:52.629Z,21.6
2018-12-22T05:07:42.656Z,21.6
2018-12-22T05:08:32.704Z,21.6
2018-12-22T05:09:22.769Z,21.6
2018-12-22T05:10:12.818Z,21.6
2018-12-22T05:11:03.010Z,21.6
2018-12-22T05:11:52.926Z,21.6
2018-12-22T05:12:42.446Z,21.6
2018-12-22T05:13:33.091Z,21.6
2018-12-22T05:14:23.109Z,21.7
2018-12-22T05:15:13.177Z,21.6
2018-12-22T05:16:03.224Z,21.6
2018-12-22T05:16:53.276Z,21.6
2018-12-22T05:17:43.323Z,21.6
2018-12-22T05:18:33.376Z,21.6
2018-12-22T05:19:23.168Z,21.6
2018-12-22T05:20:15.399Z,21.6
2018-12-22T05:21:03.545Z,21.6
2018-12-22T05:21:53.335Z,21.6
2018-12-22T05:22:43.708Z,21.6
2018-12-22T05:23:33.715Z,21.6
2018-12-22T05:24:23.779Z,21.6
2018-12-22T05:25:13.825Z,21.6
2018-12-22T05:26:03.887Z,21.6
2018-12-22T05:26:53.942Z,21.6
2018-12-22T05:27:43.988Z,21.6
2018-12-22T05:28:34.047Z,21.6
2018-12-22T05:29:24.112Z,21.6
2018-12-22T05:30:14.164Z,21.6
2018-12-22T05:31:04.229Z,21.6
2018-12-22T05:31:54.277Z,21.6
2018-12-22T05:32:44.634Z,21.6
2018-12-22T05:33:34.398Z,21.6
2018-12-22T05:34:24.451Z,21.6
2018-12-22T05:35:14.509Z,21.6
2018-12-22T05:36:04.784Z,21.6
2018-12-22T05:36:54.616Z,21.6
2018-12-22T05:37:44.681Z,21.6
2018-12-22T05:38:34.451Z,21.7
2018-12-22T05:39:24.798Z,21.6
2018-12-22T05:40:14.839Z,21.6
2018-12-22T05:41:04.631Z,21.6
2018-12-22T05:41:54.771Z,21.6
2018-12-22T05:42:44.739Z,21.6
2018-12-22T05:43:35.069Z,21.6
2018-12-22T05:44:25.126Z,21.6
2018-12-22T05:45:15.178Z,21.6
2018-12-22T05:46:04.960Z,21.6
2018-12-22T05:46:55.316Z,21.6
2018-12-22T05:47:45.065Z,21.6
2018-12-22T05:48:35.413Z,21.6
2018-12-22T05:49:25.188Z,21.6
2018-12-22T05:50:15.517Z,21.6
2018-12-22T05:51:05.573Z,21.6
2018-12-22T05:51:55.627Z,21.6
2018-12-22T05:52:45.685Z,21.6
2018-12-22T05:53:35.747Z,21.6
2018-12-22T05:54:25.835Z,21.6
2018-12-22T05:55:15.577Z,21.6
2018-12-22T05:56:05.915Z,21.6
2018-12-22T05:56:55.970Z,21.6
2018-12-22T05:57:46.027Z,21.6
2018-12-22T05:58:36.077Z,21.6
2018-12-22T05:59:26.137Z,21.6
2018-12-22T06:00:15.642Z,21.6
2018-12-22T06:01:06.250Z,21.6
2018-12-22T06:01:56.029Z,21.6
2018-12-22T06:02:46.362Z,21.6
2018-12-22T06:03:36.144Z,21.6
2018-12-22T06:04:26.479Z,21.6
2018-12-22T06:05:17.865Z,21.6
2018-12-22T06:06:06.594Z,21.6
2018-12-22T06:06:56.369Z,21.6
2018-12-22T06:07:46.702Z,21.6
2018-12-22T06:08:36.757Z,21.6
2018-12-22T06:09:26.537Z,21.6
2018-12-22T06:10:16.875Z,21.6
2018-12-22T06:11:06.927Z,21.6
2018-12-22T06:11:57.098Z,21.6
2018-12-22T06:12:47.042Z,21.6
2018-12-22T06:13:37.102Z,21.6
2018-12-22T06:14:27.151Z,21.6
2018-12-22T06:15:16.929Z,21.6
2018-12-22T06:16:07.002Z,21.6
2018-12-22T06:16:57.321Z,21.6
2018-12-22T06:17:47.379Z,21.6
2018-12-22T06:18:37.157Z,21.6
2018-12-22T06:19:27.494Z,21.6
2018-12-22T06:20:17.546Z,21.6
2018-12-22T06:21:07.321Z,21.6
2018-12-22T06:21:57.691Z,21.6
2018-12-22T06:22:47.447Z,21.6
2018-12-22T06:23:37.776Z,21.6
2018-12-22T06:24:27.559Z,21.6
2018-12-22T06:25:17.915Z,21.6
2018-12-22T06:26:07.674Z,21.7
2018-12-22T06:26:57.721Z,21.7
2018-12-22T06:27:48.054Z,21.6
2018-12-22T06:28:38.108Z,21.6
2018-12-22T06:29:28.168Z,21.6
2018-12-22T06:30:18.223Z,21.6
2018-12-22T06:31:08.003Z,21.6
2018-12-22T06:31:58.337Z,21.6
2018-12-22T06:32:48.123Z,21.6
2018-12-22T06:33:38.459Z,21.6
2018-12-22T06:34:27.958Z,21.6
2018-12-22T06:35:18.568Z,21.6
2018-12-22T06:36:08.346Z,21.6
2018-12-22T06:36:58.398Z,21.6
2018-12-22T06:37:48.725Z,21.6
2018-12-22T06:38:40.628Z,21.6
2018-12-22T06:39:28.843Z,21.6
2018-12-22T06:40:18.871Z,21.6
2018-12-22T06:41:08.963Z,21.6
2018-12-22T06:41:59.020Z,21.6
2018-12-22T06:42:49.078Z,21.6
2018-12-22T06:43:38.847Z,21.5
2018-12-22T06:44:29.187Z,21.5
2018-12-22T06:45:19.290Z,21.5
2018-12-22T06:46:09.022Z,21.5
2018-12-22T06:46:59.345Z,21.5
2018-12-22T06:47:49.129Z,21.5
2018-12-22T06:48:39.467Z,21.5
2018-12-22T06:49:29.519Z,21.5
2018-12-22T06:50:19.582Z,21.5
2018-12-22T06:51:09.633Z,21.5
2018-12-22T06:51:59.694Z,21.4
2018-12-22T06:52:49.779Z,21.4
2018-12-22T06:53:41.972Z,21.4
2018-12-22T06:54:29.892Z,21.4
2018-12-22T06:55:19.907Z,21.4
2018-12-22T06:56:09.699Z,21.4
2018-12-22T06:57:00.022Z,21.4
2018-12-22T06:57:50.087Z,21.4
2018-12-22T06:58:40.130Z,21.4
2018-12-22T06:59:30.193Z,21.4
2018-12-22T07:00:19.989Z,21.4
2018-12-22T07:01:10.392Z,21.4
2018-12-22T07:02:00.371Z,21.4
2018-12-22T07:02:50.479Z,21.4
2018-12-22T07:03:40.469Z,21.4
2018-12-22T07:04:30.256Z,21.4
2018-12-22T07:05:20.584Z,21.4
2018-12-22T07:06:10.646Z,21.4
2018-12-22T07:07:00.693Z,21.4
2018-12-22T07:07:50.748Z,21.4
2018-12-22T07:08:40.808Z,21.4
2018-12-22T07:09:30.869Z,21.4
2018-12-22T07:10:20.933Z,21.4
2018-12-22T07:11:10.983Z,21.3
2018-12-22T07:12:01.031Z,21.3
2018-12-22T07:12:50.813Z,21.4
2018-12-22T07:13:41.226Z,21.3
2018-12-22T07:14:30.928Z,21.3
2018-12-22T07:15:21.260Z,21.3
2018-12-22T07:16:11.321Z,21.3
2018-12-22T07:17:01.371Z,21.3
2018-12-22T07:17:51.415Z,21.3
2018-12-22T07:18:41.482Z,21.3
2018-12-22T07:19:31.570Z,21.3
2018-12-22T07:20:21.595Z,21.3
2018-12-22T07:21:11.680Z,21.3
2018-12-22T07:22:01.710Z,21.3
2018-12-22T07:22:52.009Z,21.3
2018-12-22T07:23:41.812Z,21.3
2018-12-22T07:24:31.882Z,21.3
2018-12-22T07:25:21.935Z,21.3
2018-12-22T07:26:11.984Z,21.3
2018-12-22T07:27:02.034Z,21.3
2018-12-22T07:27:52.095Z,21.3
2018-12-22T07:28:42.157Z,21.3
2018-12-22T07:29:31.947Z,21.3
2018-12-22T07:30:27.597Z,21.3
2018-12-22T07:31:12.317Z,21.3
2018-12-22T07:32:02.374Z,21.3
2018-12-22T07:32:58.254Z,21.3
2018-12-22T07:33:42.496Z,21.2
2018-12-22T07:34:32.276Z,21.2
2018-12-22T07:35:22.600Z,21.2
2018-12-22T07:36:12.664Z,21.2
2018-12-22T07:37:02.717Z,21.2
2018-12-22T07:37:52.766Z,21.2
2018-12-22T07:38:42.911Z,21.2
2018-12-22T07:46:13.333Z,21.1
2018-12-22T07:52:03.728Z,21.3
2018-12-22T07:52:53.776Z,21.3
2018-12-22T07:53:43.561Z,21.3
2018-12-22T07:54:33.884Z,21.4
2018-12-22T07:55:23.946Z,21.4
2018-12-22T07:56:14.009Z,21.4
2018-12-22T07:57:04.055Z,21.4
2018-12-22T07:57:54.112Z,21.4
2018-12-22T07:58:44.172Z,21.4
2018-12-22T07:59:34.220Z,21.4
2018-12-22T08:00:24.282Z,21.3
2018-12-22T08:01:14.390Z,21.3
2018-12-22T08:02:04.128Z,21.3
2018-12-22T08:02:54.452Z,21.3
2018-12-22T08:03:44.515Z,21.3
2018-12-22T08:04:34.560Z,21.3
2018-12-22T08:05:24.624Z,21.3
2018-12-22T08:06:14.407Z,21.3
2018-12-22T08:07:04.729Z,21.2
2018-12-22T08:07:54.785Z,21.2
2018-12-22T08:08:44.844Z,21.2
2018-12-22T08:09:34.902Z,21.2
2018-12-22T08:10:24.684Z,21.2
2018-12-22T08:11:15.017Z,21.2
2018-12-22T08:12:05.065Z,21.2
2018-12-22T08:12:55.129Z,21.2
2018-12-22T08:13:45.182Z,21.2
2018-12-22T08:14:35.214Z,21.2
2018-12-22T08:15:25.297Z,21.2
2018-12-22T08:16:15.377Z,21.2
2018-12-22T08:17:05.414Z,21.2
2018-12-22T08:17:55.464Z,21.2
2018-12-22T08:18:45.519Z,21.2
2018-12-22T08:19:35.629Z,21.2
2018-12-22T08:24:35.914Z,21.1
2018-12-22T08:25:25.965Z,21.1
2018-12-22T08:26:16.029Z,21
2018-12-22T08:27:05.801Z,21
2018-12-22T08:27:55.863Z,21
2018-12-22T08:28:45.921Z,21
2018-12-22T08:29:36.249Z,20.8
2018-12-22T08:30:26.310Z,20.7
2018-12-22T08:31:16.085Z,20.6
2018-12-22T08:32:06.421Z,20.4
2018-12-22T08:32:56.471Z,20.3
2018-12-22T08:33:46.531Z,20.2
2018-12-22T08:34:36.584Z,20.1
2018-12-22T08:35:26.651Z,19.9
2018-12-22T08:36:16.475Z,19.8
2018-12-22T08:37:06.772Z,19.8
2018-12-22T08:37:56.808Z,19.7
2018-12-22T08:38:46.873Z,19.8
2018-12-22T08:39:36.923Z,19.8
2018-12-22T08:40:26.977Z,19.9
2018-12-22T08:41:17.031Z,20
2018-12-22T08:42:07.391Z,20.1
2018-12-22T08:42:57.153Z,20.1
2018-12-22T08:43:47.202Z,20.1
2018-12-22T08:44:37.255Z,20.1
2018-12-22T08:45:27.332Z,20.2
2018-12-22T08:46:17.375Z,20.3
2018-12-22T08:47:07.432Z,20.3
2018-12-22T08:47:57.488Z,20.3
2018-12-22T08:48:47.269Z,20.3
2018-12-22T08:49:37.598Z,20.3
2018-12-22T08:50:27.649Z,20.4
2018-12-22T08:51:17.709Z,20.4
2018-12-22T08:52:07.490Z,20.4
2018-12-22T08:52:57.819Z,20.4
2018-12-22T08:53:47.874Z,20.4
2018-12-22T08:54:37.934Z,20.4
2018-12-22T08:55:27.999Z,20.5
2018-12-22T08:56:17.784Z,20.4
2018-12-22T08:57:08.104Z,20.5
2018-12-22T08:57:58.243Z,20.5
2018-12-22T08:58:48.226Z,20.5
2018-12-22T08:59:38.524Z,20.5
2018-12-22T09:00:28.336Z,20.5
2018-12-22T09:16:18.448Z,20.6
2018-12-22T09:17:08.228Z,20.6
2018-12-22T09:17:58.553Z,20.6
2018-12-22T09:18:48.585Z,20.6
2018-12-22T09:19:38.380Z,20.6
2018-12-22T09:20:28.726Z,20.7
2018-12-22T09:21:18.793Z,20.6
2018-12-22T09:22:08.835Z,20.7
2018-12-22T09:22:58.882Z,20.7
2018-12-22T09:23:49.198Z,20.7
2018-12-22T09:24:38.998Z,20.7
2018-12-22T09:25:29.060Z,20.7
2018-12-22T09:26:19.113Z,20.7
2018-12-22T09:27:09.163Z,20.7
2018-12-22T09:27:59.222Z,20.7
2018-12-22T09:28:49.272Z,20.7
2018-12-22T09:29:39.342Z,20.7
2018-12-22T09:30:29.394Z,20.7
2018-12-22T09:31:19.444Z,20.8
2018-12-22T09:32:09.505Z,20.8
2018-12-22T09:32:59.569Z,20.8
2018-12-22T09:33:49.612Z,20.8
2018-12-22T09:34:39.399Z,20.8
2018-12-22T09:35:29.727Z,20.8
2018-12-22T09:36:19.786Z,20.8
2018-12-22T09:37:09.849Z,20.8
2018-12-22T09:37:59.619Z,20.8
2018-12-22T09:38:49.949Z,20.8
2018-12-22T09:39:40.011Z,20.8
2018-12-22T09:40:30.061Z,20.8
2018-12-22T09:41:19.866Z,20.8
2018-12-22T09:42:09.949Z,20.8
2018-12-22T09:43:00.496Z,20.8
2018-12-22T09:43:50.294Z,20.8
2018-12-22T09:44:40.355Z,20.8
2018-12-22T09:45:30.130Z,20.8
2018-12-22T09:46:20.463Z,20.8
2018-12-22T09:47:10.256Z,20.8
2018-12-22T09:48:00.313Z,20.8
2018-12-22T09:48:50.633Z,20.8
2018-12-22T09:49:40.421Z,20.8
2018-12-22T09:50:30.510Z,20.8
2018-12-22T09:51:20.803Z,20.8
2018-12-22T09:52:10.591Z,20.8
2018-12-22T09:53:00.930Z,20.9
2018-12-22T09:53:50.973Z,20.9
2018-12-22T09:54:41.025Z,20.8
2018-12-22T09:55:31.085Z,20.9
2018-12-22T09:56:21.223Z,20.9
2018-12-22T09:57:11.200Z,20.9
2018-12-22T09:58:01.255Z,20.9
2018-12-22T09:58:51.311Z,20.9
2018-12-22T09:59:41.365Z,20.9
2018-12-22T10:00:31.430Z,20.9
2018-12-22T10:01:21.478Z,20.9
2018-12-22T10:02:11.532Z,20.9
2018-12-22T10:03:01.590Z,20.9
2018-12-22T10:03:51.650Z,20.9
2018-12-22T10:04:41.705Z,20.9
2018-12-22T10:05:31.754Z,20.9
2018-12-22T10:06:21.825Z,20.9
2018-12-22T10:07:11.620Z,20.9
2018-12-22T10:08:01.930Z,20.9
2018-12-22T10:08:51.989Z,20.9
2018-12-22T10:09:42.092Z,20.9
2018-12-22T10:10:32.099Z,20.9
2018-12-22T10:11:22.157Z,20.9
2018-12-22T10:12:12.209Z,20.9
2018-12-22T10:13:02.001Z,20.9
2018-12-22T10:13:52.334Z,21
2018-12-22T10:14:42.116Z,20.9
2018-12-22T10:15:32.554Z,20.9
2018-12-22T10:16:22.499Z,21
2018-12-22T10:17:12.557Z,21
2018-12-22T10:18:02.734Z,21
2018-12-22T10:18:52.671Z,21
2018-12-22T10:19:42.719Z,21
2018-12-22T10:20:32.778Z,21
2018-12-22T10:21:22.846Z,21
2018-12-22T10:22:12.623Z,21
2018-12-22T10:23:02.951Z,21
2018-12-22T10:23:53.006Z,21
2018-12-22T10:24:42.796Z,21
2018-12-22T10:25:33.123Z,21.1
2018-12-22T10:26:23.178Z,21
2018-12-22T10:27:13.235Z,21
2018-12-22T10:28:03.306Z,21.1
2018-12-22T10:28:53.346Z,21.1
2018-12-22T10:29:43.430Z,21.1
2018-12-22T10:30:33.180Z,21.1
2018-12-22T10:31:23.523Z,21.1
2018-12-22T10:32:13.573Z,21.1
2018-12-22T10:33:03.631Z,21.1
2018-12-22T10:33:53.691Z,21.1
2018-12-22T10:34:43.748Z,21.1
2018-12-22T10:35:33.803Z,21.1
2018-12-22T10:36:23.857Z,21.1
2018-12-22T10:37:13.915Z,21.1
2018-12-22T10:38:03.703Z,21.1
2018-12-22T10:38:53.760Z,21.1
2018-12-22T10:39:43.818Z,21.1
2018-12-22T10:41:24.207Z,21.1
2018-12-22T10:45:34.217Z,21.1
2018-12-22T10:47:14.336Z,21.1
2018-12-22T10:48:54.709Z,21.1
2018-12-22T10:50:34.829Z,21.1
2018-12-22T11:15:36.529Z,21.1
2018-12-22T11:18:06.431Z,21.1
2018-12-22T11:18:56.749Z,21.1
2018-12-22T11:19:46.800Z,21
2018-12-22T11:20:36.863Z,21.1
2018-12-22T11:21:26.928Z,21
2018-12-22T11:22:16.977Z,21
2018-12-22T11:23:07.037Z,21
2018-12-22T11:23:57.087Z,21.1
2018-12-22T11:24:46.867Z,21
2018-12-22T11:25:36.922Z,21
2018-12-22T11:26:27.253Z,21
2018-12-22T11:27:17.318Z,21
2018-12-22T11:28:07.368Z,21
2018-12-22T11:28:57.427Z,20.9
2018-12-22T11:29:47.483Z,20.9
2018-12-22T11:30:37.540Z,21
2018-12-22T11:31:35.943Z,20.9
2018-12-22T11:32:17.653Z,20.9
2018-12-22T11:33:07.713Z,21
2018-12-22T11:33:57.502Z,21
2018-12-22T11:34:47.825Z,21
2018-12-22T11:35:37.887Z,21
2018-12-22T11:36:27.932Z,20.9
2018-12-22T11:37:18.344Z,21
2018-12-22T11:38:08.042Z,21
2018-12-22T11:38:58.107Z,21
2018-12-22T11:39:48.162Z,21
2018-12-22T11:40:38.219Z,21
2018-12-22T11:41:28.272Z,21
2018-12-22T11:42:18.332Z,21
2018-12-22T11:43:08.109Z,21
2018-12-22T11:43:58.439Z,21
2018-12-22T11:44:48.499Z,21
2018-12-22T11:45:38.557Z,21
2018-12-22T11:46:28.348Z,21
2018-12-22T11:47:18.669Z,21
2018-12-22T11:48:08.729Z,21
2018-12-22T11:48:58.779Z,21.1
2018-12-22T11:49:48.839Z,21
2018-12-22T11:50:38.889Z,21
2018-12-22T11:51:28.952Z,21
2018-12-22T11:52:19.011Z,21
2018-12-22T11:53:08.787Z,21
2018-12-22T11:53:59.122Z,21
2018-12-22T11:54:48.899Z,21
2018-12-22T11:55:39.236Z,21
2018-12-22T11:56:29.534Z,21
2018-12-22T11:57:19.344Z,21
2018-12-22T11:58:09.403Z,21
2018-12-22T11:58:59.471Z,21
2018-12-22T11:59:49.517Z,21
2018-12-22T12:00:39.299Z,21
2018-12-22T12:01:29.079Z,21
2018-12-22T12:02:19.691Z,21
2018-12-22T12:03:09.481Z,21
2018-12-22T12:03:59.806Z,21
2018-12-22T12:04:49.858Z,21
2018-12-22T12:05:40.026Z,21
2018-12-22T12:06:29.968Z,21
2018-12-22T12:07:20.023Z,21
2018-12-22T12:08:09.813Z,21
2018-12-22T12:09:00.140Z,21
2018-12-22T12:09:49.918Z,21
2018-12-22T12:10:40.253Z,21
2018-12-22T12:11:30.030Z,21
2018-12-22T12:12:20.363Z,21
2018-12-22T12:13:10.423Z,20.9
2018-12-22T12:14:00.475Z,21
2018-12-22T12:14:50.533Z,20.9
2018-12-22T12:15:40.589Z,21
2018-12-22T12:16:30.643Z,20.9
2018-12-22T12:17:20.703Z,20.9
2018-12-22T12:18:10.830Z,21
2018-12-22T12:19:00.819Z,21
2018-12-22T12:19:50.874Z,21
2018-12-22T12:20:40.935Z,20.9
2018-12-22T12:21:30.985Z,20.9
2018-12-22T12:22:21.037Z,20.9
2018-12-22T12:23:11.100Z,20.9
2018-12-22T12:24:01.556Z,20.9
2018-12-22T12:24:51.202Z,20.9
2018-12-22T12:25:41.280Z,20.9
2018-12-22T12:26:31.322Z,20.9
2018-12-22T12:27:21.377Z,20.9
2018-12-22T12:28:11.687Z,20.9
2018-12-22T12:29:01.515Z,20.9
2018-12-22T12:29:51.548Z,20.9
2018-12-22T12:30:41.607Z,20.9
2018-12-22T12:31:31.659Z,20.9
2018-12-22T12:32:21.712Z,20.9
2018-12-22T12:33:11.770Z,20.9
2018-12-22T12:34:01.827Z,20.9
2018-12-22T12:34:51.883Z,20.9
2018-12-22T12:35:41.673Z,20.9
2018-12-22T12:36:32.000Z,20.9
2018-12-22T12:37:22.052Z,20.9
2018-12-22T12:38:12.109Z,20.9
2018-12-22T12:39:02.162Z,20.9
2018-12-22T12:39:52.232Z,20.9
2018-12-22T12:40:42.287Z,20.9
2018-12-22T12:41:32.331Z,20.9
2018-12-22T12:42:22.119Z,20.9
2018-12-22T12:43:12.174Z,20.9
2018-12-22T12:44:02.556Z,20.9
2018-12-22T12:44:52.560Z,20.9
2018-12-22T12:45:42.619Z,20.9
2018-12-22T12:46:35.010Z,20.9
2018-12-22T12:47:22.739Z,20.9
2018-12-22T12:48:12.786Z,20.9
2018-12-22T12:49:02.843Z,20.9
2018-12-22T12:49:52.894Z,20.9
2018-12-22T12:50:42.951Z,20.9
2018-12-22T12:51:33.014Z,20.9
2018-12-22T12:52:23.066Z,20.8
2018-12-22T12:53:13.126Z,20.8
2018-12-22T12:54:03.188Z,20.9
2018-12-22T12:54:53.244Z,20.8
2018-12-22T12:55:43.289Z,20.8
2018-12-22T12:56:33.086Z,20.8
2018-12-22T12:57:23.411Z,20.8
2018-12-22T12:58:13.473Z,20.8
2018-12-22T12:59:03.516Z,20.8
2018-12-22T12:59:53.577Z,20.8
2018-12-22T13:00:43.739Z,20.8
2018-12-22T13:01:33.416Z,20.8
2018-12-22T13:02:23.745Z,20.8
2018-12-22T13:03:13.806Z,20.8
2018-12-22T13:04:03.860Z,20.8
2018-12-22T13:04:53.631Z,20.8
2018-12-22T13:05:43.979Z,20.8
2018-12-22T13:06:34.040Z,20.8
2018-12-22T13:07:24.141Z,20.8
2018-12-22T13:08:14.140Z,20.8
2018-12-22T13:09:03.933Z,20.8
2018-12-22T13:09:54.263Z,20.8
2018-12-22T13:10:44.318Z,20.8
2018-12-22T13:11:34.098Z,20.8
2018-12-22T13:12:24.738Z,20.8
2018-12-22T13:13:14.486Z,20.8
2018-12-22T13:14:04.270Z,20.8
2018-12-22T13:14:54.593Z,20.8
2018-12-22T13:15:44.644Z,20.8
2018-12-22T13:16:34.710Z,20.8